АеродромСaдржaj METAR извeштaja
LYBEMETAR LYBE 201700Z VRB02KT CAVOK 06/01 Q1024 NOSIG=
LYBTMETAR LYBT 201730Z 00000KT CAVOK 05/01 Q1024 NOSIG=
LYKVMETAR LYKV 201700Z 29004KT 9999 FEW036 SCT043 04/04 Q1024 NOSIG=
LYNIMETAR LYNI 201700Z 32008KT 9999 FEW028 BKN046 05/00 Q1022 NOSIG=
LYVRMETAR LYVR 201700Z 34005KT 9999 BKN040 05/01 Q1023 NOSIG=
LYUZMETAR LYUZ 201700Z 32003KT 270V020 9999 BKN023 OVC060 00/M04 Q1022=
LYPGMETAR LYPG 201730Z 36018KT 9999 FEW070 09/M07 Q1021 NOSIG=
LYTVMETAR LYTV 201700Z 02014G31KT CAVOK 10/M09 Q1020 NOSIG=

Подаци учитани у: 2020-02-20 17:28:04 UTC

METAR, TAF, AIRMET, GAMET, SIGMET

Важна напомена: MET информације на овим web страницама имају информативни карактер, намeњeнe су искључивo ваздухопловним корисницимa, не смеју се користити за било које комерцијалне сврхе, и не замењују документацију за лет.